createdAt,value
2023-02-09T00:01:32.535Z,35.57
2023-02-09T00:04:01.154Z,37.87
2023-02-09T00:06:30.275Z,38.17
2023-02-09T00:08:59.235Z,42.47
2023-02-09T00:11:50.734Z,41.33
2023-02-09T00:14:21.916Z,46.83
2023-02-09T00:16:51.405Z,57.93
2023-02-09T00:20:04.773Z,33.87
2023-02-09T00:22:32.362Z,39.93
2023-02-09T00:24:59.602Z,39.43
2023-02-09T00:27:26.870Z,33.53
2023-02-09T00:29:54.326Z,44.33
2023-02-09T00:32:21.607Z,35.33
2023-02-09T00:34:48.993Z,31.53
2023-02-09T00:37:16.314Z,37.97
2023-02-09T00:39:46.148Z,48.92
2023-02-09T00:42:13.412Z,55.73
2023-02-09T00:44:41.736Z,43.90
2023-02-09T00:47:09.881Z,37.60
2023-02-09T00:49:37.411Z,53.27
2023-02-09T00:52:04.721Z,32.30
2023-02-09T00:54:31.887Z,40.10
2023-02-09T00:57:05.304Z,33.87
2023-02-09T00:59:35.727Z,34.87
2023-02-09T01:02:03.527Z,42.40
2023-02-09T01:04:31.034Z,36.37
2023-02-09T01:06:58.279Z,33.00
2023-02-09T01:09:25.973Z,33.97
2023-02-09T01:11:53.305Z,33.23
2023-02-09T01:14:20.531Z,36.70
2023-02-09T01:16:48.066Z,37.37
2023-02-09T01:19:15.301Z,43.27
2023-02-09T01:21:43.182Z,35.87
2023-02-09T01:24:14.593Z,51.80
2023-02-09T01:26:42.386Z,47.10
2023-02-09T01:29:15.162Z,36.87
2023-02-09T01:31:42.671Z,30.73
2023-02-09T01:34:14.083Z,36.37
2023-02-09T01:36:41.627Z,37.70
2023-02-09T01:39:11.927Z,32.00
2023-02-09T01:41:40.217Z,35.92
2023-02-09T01:44:16.434Z,33.23
2023-02-09T01:46:46.702Z,36.47
2023-02-09T01:49:16.036Z,32.47
2023-02-09T01:51:52.527Z,35.53
2023-02-09T01:54:41.612Z,41.13
2023-02-09T01:57:21.038Z,37.67
2023-02-09T01:59:56.634Z,32.83
2023-02-09T02:02:24.756Z,34.10
2023-02-09T02:04:52.734Z,37.70
2023-02-09T02:07:28.872Z,38.50
2023-02-09T02:09:56.260Z,35.07
2023-02-09T02:12:24.776Z,33.47
2023-02-09T02:14:51.976Z,31.17
2023-02-09T02:17:46.062Z,34.37
2023-02-09T02:20:52.295Z,23.93
2023-02-09T02:23:58.222Z,23.80
2023-02-09T02:26:57.470Z,25.57
2023-02-09T02:30:13.371Z,28.60
2023-02-09T02:33:00.958Z,31.63
2023-02-09T02:36:25.410Z,30.83
2023-02-09T02:39:04.285Z,30.13
2023-02-09T02:42:10.778Z,26.03
2023-02-09T02:44:41.927Z,31.17
2023-02-09T02:47:15.822Z,27.27
2023-02-09T02:49:57.605Z,26.63
2023-02-09T02:52:25.065Z,23.07
2023-02-09T02:55:06.457Z,26.60
2023-02-09T02:57:38.227Z,30.60
2023-02-09T03:00:19.310Z,29.67
2023-02-09T03:03:11.957Z,29.27
2023-02-09T03:05:39.781Z,21.97
2023-02-09T03:08:07.030Z,24.70
2023-02-09T03:10:38.420Z,24.40
2023-02-09T03:13:48.267Z,27.77
2023-02-09T03:16:26.245Z,21.70
2023-02-09T03:19:13.677Z,29.57
2023-02-09T03:21:47.047Z,24.53
2023-02-09T03:24:51.344Z,25.23
2023-02-09T03:27:34.093Z,33.13
2023-02-09T03:30:06.470Z,27.80
2023-02-09T03:32:42.514Z,22.23
2023-02-09T03:35:16.788Z,24.40
2023-02-09T03:37:44.390Z,29.63
2023-02-09T03:40:12.020Z,23.50
2023-02-09T03:42:39.268Z,27.70
2023-02-09T03:45:08.110Z,23.57
2023-02-09T03:47:35.405Z,32.43
2023-02-09T03:50:03.219Z,25.27
2023-02-09T03:52:31.636Z,23.23
2023-02-09T03:54:59.222Z,22.27
2023-02-09T03:57:26.586Z,25.47
2023-02-09T03:59:53.797Z,23.87
2023-02-09T04:02:21.179Z,25.93
2023-02-09T04:04:48.449Z,29.40
2023-02-09T04:07:16.084Z,27.43
2023-02-09T04:09:43.365Z,26.97
2023-02-09T04:12:10.650Z,22.33
2023-02-09T04:14:38.147Z,21.03
2023-02-09T04:17:05.305Z,24.40
2023-02-09T04:19:32.586Z,23.67
2023-02-09T04:22:00.991Z,27.37
2023-02-09T04:24:28.825Z,24.57
2023-02-09T04:26:56.123Z,26.40
2023-02-09T04:29:23.293Z,20.17
2023-02-09T04:31:50.716Z,17.97
2023-02-09T04:34:18.315Z,18.73
2023-02-09T04:36:45.588Z,21.70
2023-02-09T04:39:12.876Z,19.43
2023-02-09T04:41:40.119Z,22.43
2023-02-09T04:44:07.667Z,28.67
2023-02-09T04:46:35.156Z,21.33
2023-02-09T04:49:02.440Z,24.57
2023-02-09T04:51:29.574Z,24.47
2023-02-09T04:53:56.790Z,24.43
2023-02-09T04:56:24.007Z,19.73
2023-02-09T04:59:10.478Z,21.13
2023-02-09T05:01:37.676Z,19.70
2023-02-09T05:04:05.002Z,17.00
2023-02-09T05:06:32.427Z,16.97
2023-02-09T05:08:59.600Z,22.83
2023-02-09T05:11:26.879Z,14.33
2023-02-09T05:13:54.170Z,23.27
2023-02-09T05:16:21.549Z,21.03
2023-02-09T05:18:50.468Z,23.33
2023-02-09T05:21:17.983Z,19.80
2023-02-09T05:23:45.265Z,17.07
2023-02-09T05:26:12.482Z,15.73
2023-02-09T05:28:39.695Z,18.43
2023-02-09T05:31:06.898Z,18.00
2023-02-09T05:33:34.110Z,20.93
2023-02-09T05:36:01.442Z,21.87
2023-02-09T05:38:28.653Z,15.60
2023-02-09T05:40:55.927Z,17.43
2023-02-09T05:43:23.172Z,20.87
2023-02-09T05:45:50.427Z,19.47
2023-02-09T05:48:17.756Z,17.63
2023-02-09T05:50:45.289Z,18.23
2023-02-09T05:53:16.162Z,18.87
2023-02-09T05:55:44.020Z,26.10
2023-02-09T05:58:11.501Z,22.90
2023-02-09T06:00:38.734Z,22.30
2023-02-09T06:03:06.050Z,21.60
2023-02-09T06:05:33.274Z,24.10
2023-02-09T06:08:00.537Z,20.57
2023-02-09T06:10:27.751Z,23.90
2023-02-09T06:12:55.006Z,18.77
2023-02-09T06:15:22.271Z,24.60
2023-02-09T06:17:49.526Z,38.57
2023-02-09T06:20:16.798Z,29.13
2023-02-09T06:22:44.037Z,83.57
2023-02-09T06:25:11.277Z,38.50
2023-02-09T06:27:38.512Z,28.20
2023-02-09T06:30:06.785Z,30.40
2023-02-09T06:32:34.043Z,28.13
2023-02-09T06:35:01.298Z,25.43
2023-02-09T06:37:28.629Z,22.57
2023-02-09T06:39:55.863Z,24.53
2023-02-09T06:42:24.145Z,27.47
2023-02-09T06:44:51.439Z,27.87
2023-02-09T06:47:18.617Z,33.30
2023-02-09T06:49:45.873Z,27.97
2023-02-09T06:52:13.337Z,24.10
2023-02-09T06:54:40.629Z,24.93
2023-02-09T06:57:08.004Z,25.13
2023-02-09T06:59:35.201Z,21.73
2023-02-09T07:02:02.428Z,22.77
2023-02-09T07:04:29.697Z,19.73
2023-02-09T07:06:56.928Z,20.73
2023-02-09T07:09:24.183Z,19.23
2023-02-09T07:11:51.455Z,20.97
2023-02-09T07:14:18.765Z,20.47
2023-02-09T07:16:45.912Z,19.03
2023-02-09T07:19:13.282Z,16.50
2023-02-09T07:21:40.627Z,19.10
2023-02-09T07:24:07.927Z,16.77
2023-02-09T07:26:35.066Z,14.50
2023-02-09T07:29:02.574Z,22.63
2023-02-09T07:31:29.967Z,17.33
2023-02-09T07:33:58.363Z,25.27
2023-02-09T07:36:25.614Z,18.97
2023-02-09T07:38:52.965Z,19.67
2023-02-09T07:41:26.597Z,18.47
2023-02-09T07:43:56.235Z,19.87
2023-02-09T07:46:25.713Z,17.43
2023-02-09T07:48:53.155Z,15.00
2023-02-09T07:51:25.476Z,16.63
2023-02-09T07:53:53.696Z,18.27
2023-02-09T07:56:22.142Z,14.93
2023-02-09T07:58:50.097Z,15.90
2023-02-09T08:01:18.359Z,18.25
2023-02-09T08:03:48.613Z,16.42
2023-02-09T08:06:43.168Z,18.08
2023-02-09T08:09:13.388Z,17.55
2023-02-09T08:12:05.252Z,19.88
2023-02-09T08:14:43.025Z,15.85
2023-02-09T08:17:24.240Z,13.25
2023-02-09T08:20:05.277Z,15.07
2023-02-09T08:22:39.162Z,18.88
2023-02-09T08:25:07.033Z,17.17
2023-02-09T08:27:36.276Z,16.02
2023-02-09T08:30:04.096Z,12.25
2023-02-09T08:32:31.394Z,15.30
2023-02-09T08:34:58.551Z,16.80
2023-02-09T08:37:25.850Z,17.15
2023-02-09T08:39:53.062Z,22.02
2023-02-09T08:42:20.354Z,15.60
2023-02-09T08:44:48.414Z,17.02
2023-02-09T08:47:15.743Z,16.42
2023-02-09T08:49:43.058Z,15.95
2023-02-09T08:52:10.332Z,17.40
2023-02-09T08:54:37.699Z,16.95
2023-02-09T08:57:05.040Z,19.83
2023-02-09T08:59:33.221Z,15.85
2023-02-09T09:02:00.521Z,19.08
2023-02-09T09:04:28.541Z,16.50
2023-02-09T09:06:55.679Z,16.25
2023-02-09T09:09:23.072Z,18.88
2023-02-09T09:11:50.419Z,14.75
2023-02-09T09:14:17.714Z,16.85
2023-02-09T09:16:44.917Z,16.20
2023-02-09T09:19:12.216Z,14.77
2023-02-09T09:21:39.459Z,16.60
2023-02-09T09:24:06.740Z,20.67
2023-02-09T09:26:35.602Z,17.65
2023-02-09T09:29:03.087Z,16.70
2023-02-09T09:31:33.601Z,21.92
2023-02-09T09:34:01.106Z,18.35
2023-02-09T09:36:28.302Z,20.50
2023-02-09T09:38:56.595Z,18.08
2023-02-09T09:41:34.634Z,17.15
2023-02-09T09:44:04.494Z,19.33
2023-02-09T09:46:39.737Z,24.58
2023-02-09T09:49:12.594Z,19.42
2023-02-09T09:51:47.728Z,15.35
2023-02-09T09:54:22.052Z,18.98
2023-02-09T09:56:52.241Z,17.17
2023-02-09T09:59:32.322Z,19.50
2023-02-09T10:02:14.026Z,20.45
2023-02-09T10:04:41.531Z,18.17
2023-02-09T10:07:19.822Z,19.15
2023-02-09T10:10:04.110Z,19.85
2023-02-09T10:12:41.722Z,25.80
2023-02-09T10:15:33.175Z,16.60
2023-02-09T10:18:01.658Z,15.98
2023-02-09T10:20:56.828Z,17.65
2023-02-09T10:23:43.289Z,17.27
2023-02-09T10:26:10.931Z,16.40
2023-02-09T10:28:48.754Z,16.83
2023-02-09T10:31:29.173Z,15.85
2023-02-09T10:36:52.934Z,16.90
2023-02-09T10:39:28.802Z,15.50
2023-02-09T10:42:11.931Z,16.02
2023-02-09T10:44:40.395Z,15.68
2023-02-09T10:47:19.813Z,17.35
2023-02-09T10:50:11.472Z,15.88
2023-02-09T10:53:14.355Z,16.45
2023-02-09T10:55:42.839Z,14.63
2023-02-09T10:58:09.966Z,14.73
2023-02-09T11:01:10.018Z,17.80
2023-02-09T11:04:00.973Z,14.10
2023-02-09T11:06:33.675Z,14.95
2023-02-09T11:09:17.207Z,12.65
2023-02-09T11:11:46.114Z,14.85
2023-02-09T11:14:21.048Z,13.95
2023-02-09T11:17:10.348Z,17.85
2023-02-09T11:20:01.908Z,17.00
2023-02-09T11:23:01.260Z,15.52
2023-02-09T11:25:39.002Z,14.68
2023-02-09T11:28:42.780Z,12.93
2023-02-09T11:31:38.829Z,24.08
2023-02-09T11:34:35.186Z,15.73
2023-02-09T11:37:20.534Z,12.43
2023-02-09T11:40:41.895Z,13.05
2023-02-09T11:43:19.995Z,15.40
2023-02-09T11:45:54.002Z,28.38
2023-02-09T11:48:31.556Z,45.97
2023-02-09T11:51:17.325Z,11.93
2023-02-09T11:53:59.503Z,15.77
2023-02-09T11:56:28.409Z,16.67
2023-02-09T11:59:10.658Z,12.80
2023-02-09T12:01:57.140Z,13.57
2023-02-09T12:04:57.832Z,17.73
2023-02-09T12:07:52.566Z,11.82
2023-02-09T12:10:33.297Z,13.23
2023-02-09T12:13:09.373Z,13.50
2023-02-09T12:15:52.353Z,13.25
2023-02-09T12:18:24.946Z,13.07
2023-02-09T12:20:58.837Z,11.18
2023-02-09T12:23:43.314Z,10.98
2023-02-09T12:26:16.467Z,12.30
2023-02-09T12:29:04.706Z,11.65
2023-02-09T12:32:04.055Z,9.55
2023-02-09T12:34:52.531Z,11.75
2023-02-09T12:37:29.341Z,9.55
2023-02-09T12:40:11.509Z,9.93
2023-02-09T12:42:47.146Z,9.77
2023-02-09T12:45:40.527Z,8.13
2023-02-09T12:48:07.665Z,11.02
2023-02-09T12:50:54.232Z,12.25
2023-02-09T12:53:26.966Z,10.23
2023-02-09T12:56:01.253Z,14.20
2023-02-09T12:59:13.682Z,8.75
2023-02-09T13:02:08.234Z,13.45
2023-02-09T13:04:50.542Z,9.35
2023-02-09T13:08:01.940Z,9.20
2023-02-09T13:11:09.355Z,8.05
2023-02-09T13:13:53.877Z,8.73
2023-02-09T13:16:30.126Z,8.43
2023-02-09T13:19:19.036Z,9.50
2023-02-09T13:22:03.937Z,7.22
2023-02-09T13:24:53.375Z,7.47
2023-02-09T13:27:23.593Z,8.13
2023-02-09T13:29:56.788Z,6.82
2023-02-09T13:32:49.471Z,7.38
2023-02-09T13:35:29.363Z,6.22
2023-02-09T13:38:00.229Z,4.97
2023-02-09T13:40:31.786Z,4.50
2023-02-09T13:43:31.624Z,4.05
2023-02-09T13:46:01.546Z,4.47
2023-02-09T13:48:38.607Z,4.57
2023-02-09T13:51:20.640Z,4.68
2023-02-09T13:54:02.975Z,2.90
2023-02-09T13:56:33.330Z,4.47
2023-02-09T13:59:01.365Z,6.75
2023-02-09T14:01:37.035Z,3.40
2023-02-09T14:04:23.601Z,4.10
2023-02-09T14:07:11.673Z,3.90
2023-02-09T14:09:58.220Z,4.40
2023-02-09T14:12:55.606Z,4.30
2023-02-09T14:15:55.824Z,8.95
2023-02-09T14:18:47.114Z,4.72
2023-02-09T14:21:40.181Z,5.40
2023-02-09T14:24:21.636Z,4.03
2023-02-09T14:26:56.479Z,5.88
2023-02-09T14:29:25.394Z,4.97
2023-02-09T14:32:00.709Z,4.03
2023-02-09T14:34:35.841Z,5.00
2023-02-09T14:37:10.990Z,4.85
2023-02-09T14:39:55.500Z,6.13
2023-02-09T14:42:23.903Z,6.72
2023-02-09T14:45:22.556Z,6.28
2023-02-09T14:47:49.831Z,4.20
2023-02-09T14:50:21.890Z,4.07
2023-02-09T14:52:54.296Z,3.95
2023-02-09T14:55:29.763Z,4.18
2023-02-09T14:57:57.229Z,4.97
2023-02-09T15:00:31.029Z,5.47
2023-02-09T15:03:00.278Z,4.93
2023-02-09T15:05:29.498Z,5.07
2023-02-09T15:08:05.801Z,7.70
2023-02-09T15:10:38.247Z,4.85
2023-02-09T15:13:06.220Z,3.08
2023-02-09T15:15:37.925Z,5.03
2023-02-09T15:18:06.811Z,12.15
2023-02-09T15:20:34.156Z,20.70
2023-02-09T15:23:01.588Z,8.45
2023-02-09T15:25:29.686Z,6.33
2023-02-09T15:28:00.660Z,8.77
2023-02-09T15:30:33.821Z,8.13
2023-02-09T15:33:01.939Z,6.33
2023-02-09T15:35:29.804Z,5.37
2023-02-09T15:38:00.495Z,6.47
2023-02-09T15:43:45.300Z,3.87
2023-02-09T15:46:32.648Z,4.97
2023-02-09T15:49:00.771Z,6.73
2023-02-09T15:51:34.065Z,7.37
2023-02-09T15:54:10.796Z,6.90
2023-02-09T15:56:38.910Z,4.93
2023-02-09T15:59:06.388Z,5.87
2023-02-09T16:01:34.694Z,5.67
2023-02-09T16:04:14.454Z,10.20
2023-02-09T16:06:50.696Z,6.75
2023-02-09T16:09:23.284Z,7.67
2023-02-09T16:11:50.694Z,7.20
2023-02-09T16:14:24.520Z,10.17
2023-02-09T16:16:52.654Z,7.07
2023-02-09T16:19:21.481Z,4.10
2023-02-09T16:21:54.124Z,6.37
2023-02-09T16:24:44.938Z,4.83
2023-02-09T16:27:25.246Z,5.75
2023-02-09T16:29:52.487Z,6.15
2023-02-09T16:32:26.884Z,8.93
2023-02-09T16:34:55.038Z,11.60
2023-02-09T16:37:31.583Z,7.57
2023-02-09T16:40:01.036Z,8.67
2023-02-09T16:42:29.722Z,10.27
2023-02-09T16:44:57.363Z,8.03
2023-02-09T16:47:27.996Z,8.13
2023-02-09T16:50:33.161Z,4.30
2023-02-09T16:53:06.610Z,8.00
2023-02-09T16:55:36.475Z,7.03
2023-02-09T16:58:05.268Z,9.33
2023-02-09T17:00:38.495Z,10.70
2023-02-09T17:03:28.634Z,7.37
2023-02-09T17:05:57.662Z,8.88
2023-02-09T17:08:32.016Z,6.83
2023-02-09T17:11:01.214Z,5.67
2023-02-09T17:13:30.976Z,6.50
2023-02-09T17:16:03.845Z,10.57
2023-02-09T17:18:40.526Z,6.77
2023-02-09T17:21:09.421Z,8.17
2023-02-09T17:23:37.269Z,5.87
2023-02-09T17:26:04.911Z,8.13
2023-02-09T17:28:32.587Z,13.10
2023-02-09T17:31:03.049Z,8.60
2023-02-09T17:33:35.569Z,8.50
2023-02-09T17:36:25.159Z,9.67
2023-02-09T17:38:52.281Z,7.67
2023-02-09T17:41:43.319Z,8.57
2023-02-09T17:44:43.315Z,11.33
2023-02-09T17:47:19.079Z,17.03
2023-02-09T17:49:46.639Z,14.07
2023-02-09T17:52:19.535Z,10.93
2023-02-09T17:54:47.919Z,11.20
2023-02-09T17:57:17.229Z,6.33
2023-02-09T17:59:44.661Z,13.07
2023-02-09T18:02:19.753Z,12.73
2023-02-09T18:04:47.308Z,10.67
2023-02-09T18:07:20.260Z,11.47
2023-02-09T18:09:48.015Z,14.57
2023-02-09T18:12:29.082Z,12.07
2023-02-09T18:14:56.560Z,14.50
2023-02-09T18:17:23.803Z,15.57
2023-02-09T18:19:51.191Z,14.73
2023-02-09T18:22:19.990Z,13.50
2023-02-09T18:24:48.663Z,15.67
2023-02-09T18:27:24.510Z,14.43
2023-02-09T18:29:51.872Z,17.73
2023-02-09T18:32:21.194Z,15.70
2023-02-09T18:34:48.710Z,14.27
2023-02-09T18:37:16.681Z,15.03
2023-02-09T18:39:46.685Z,11.47
2023-02-09T18:42:16.078Z,15.82
2023-02-09T18:44:43.570Z,14.27
2023-02-09T18:47:11.235Z,15.70
2023-02-09T18:49:39.146Z,14.73
2023-02-09T18:52:06.646Z,17.90
2023-02-09T18:54:34.193Z,22.93
2023-02-09T18:57:01.605Z,12.90
2023-02-09T18:59:31.516Z,13.53
2023-02-09T19:01:59.881Z,18.80
2023-02-09T19:04:27.506Z,17.70
2023-02-09T19:06:55.231Z,16.83
2023-02-09T19:09:22.872Z,16.77
2023-02-09T19:11:50.182Z,15.17
2023-02-09T19:14:35.895Z,68.03
2023-02-09T19:17:04.401Z,73.60
2023-02-09T19:19:31.748Z,35.97
2023-02-09T19:22:00.379Z,40.63
2023-02-09T19:24:29.533Z,18.77
2023-02-09T19:26:56.917Z,27.10
2023-02-09T19:29:25.791Z,18.53
2023-02-09T19:31:55.651Z,15.80
2023-02-09T19:34:23.982Z,16.90
2023-02-09T19:36:51.534Z,14.47
2023-02-09T19:39:19.368Z,15.93
2023-02-09T19:41:49.120Z,15.93
2023-02-09T19:44:16.583Z,16.90
2023-02-09T19:46:43.992Z,18.20
2023-02-09T19:49:11.577Z,19.90
2023-02-09T19:51:39.536Z,19.87
2023-02-09T19:54:07.045Z,15.17
2023-02-09T19:56:34.920Z,15.83
2023-02-09T19:59:02.332Z,18.63
2023-02-09T20:01:31.622Z,13.10
2023-02-09T20:03:59.066Z,14.00
2023-02-09T20:06:26.531Z,14.80
2023-02-09T20:08:53.824Z,14.13
2023-02-09T20:11:21.510Z,16.63
2023-02-09T20:13:53.496Z,17.83
2023-02-09T20:16:24.888Z,13.93
2023-02-09T20:18:53.400Z,15.10
2023-02-09T20:21:23.083Z,14.00
2023-02-09T20:23:55.463Z,19.50
2023-02-09T20:26:29.611Z,16.03
2023-02-09T20:28:57.833Z,16.17
2023-02-09T20:31:29.032Z,11.00
2023-02-09T20:33:58.100Z,13.03
2023-02-09T20:36:25.862Z,18.83
2023-02-09T20:38:53.298Z,14.03
2023-02-09T20:41:20.695Z,12.60
2023-02-09T20:44:06.653Z,12.33
2023-02-09T20:46:43.969Z,14.50
2023-02-09T20:49:15.109Z,12.00
2023-02-09T20:51:44.426Z,9.67
2023-02-09T20:54:12.866Z,13.30
2023-02-09T20:56:40.143Z,16.13
2023-02-09T20:59:08.016Z,14.30
2023-02-09T21:01:40.190Z,12.43
2023-02-09T21:04:08.244Z,11.27
2023-02-09T21:06:37.458Z,13.57
2023-02-09T21:09:07.628Z,15.50
2023-02-09T21:11:35.234Z,12.85
2023-02-09T21:14:02.803Z,15.40
2023-02-09T21:16:31.963Z,14.27
2023-02-09T21:18:59.689Z,25.43
2023-02-09T21:21:27.510Z,19.90
2023-02-09T21:23:55.447Z,18.90
2023-02-09T21:26:24.572Z,14.60
2023-02-09T21:28:58.837Z,16.97
2023-02-09T21:31:28.052Z,16.27
2023-02-09T21:33:55.339Z,17.73
2023-02-09T21:36:22.680Z,14.63
2023-02-09T21:38:49.994Z,9.87
2023-02-09T21:41:58.964Z,11.47
2023-02-09T21:44:26.304Z,13.37
2023-02-09T21:46:54.221Z,13.43
2023-02-09T21:49:22.642Z,14.93
2023-02-09T21:51:50.066Z,14.73
2023-02-09T21:54:18.755Z,12.33
2023-02-09T21:56:46.127Z,14.83
2023-02-09T21:59:13.613Z,17.90
2023-02-09T22:01:42.548Z,15.47
2023-02-09T22:04:11.012Z,22.13
2023-02-09T22:06:38.383Z,26.07
2023-02-09T22:09:06.402Z,20.17
2023-02-09T22:11:34.486Z,28.60
2023-02-09T22:14:01.910Z,25.47
2023-02-09T22:16:29.609Z,26.03
2023-02-09T22:18:58.561Z,20.27
2023-02-09T22:21:26.349Z,18.00
2023-02-09T22:23:54.294Z,18.53
2023-02-09T22:26:21.547Z,13.27
2023-02-09T22:28:48.828Z,17.77
2023-02-09T22:31:21.066Z,14.43
2023-02-09T22:33:53.253Z,14.47
2023-02-09T22:36:21.622Z,20.13
2023-02-09T22:38:48.919Z,20.93
2023-02-09T22:41:23.693Z,15.07
2023-02-09T22:44:07.126Z,19.00
2023-02-09T22:46:39.063Z,15.77
2023-02-09T22:49:10.635Z,19.23
2023-02-09T22:51:38.030Z,15.47
2023-02-09T22:54:06.191Z,17.77
2023-02-09T22:56:33.933Z,15.83
2023-02-09T22:59:01.914Z,17.97
2023-02-09T23:01:30.152Z,17.63
2023-02-09T23:03:57.668Z,19.50
2023-02-09T23:06:27.583Z,17.67
2023-02-09T23:09:04.453Z,14.95
2023-02-09T23:11:32.379Z,15.77
2023-02-09T23:14:09.010Z,19.03
2023-02-09T23:16:38.199Z,18.90
2023-02-09T23:19:08.376Z,16.13
2023-02-09T23:21:43.168Z,17.52
2023-02-09T23:24:12.141Z,17.93
2023-02-09T23:26:39.842Z,13.83
2023-02-09T23:29:10.548Z,15.33
2023-02-09T23:34:05.192Z,11.63
2023-02-09T23:36:34.750Z,16.67
2023-02-09T23:39:06.175Z,17.47
2023-02-09T23:41:34.933Z,17.07
2023-02-09T23:44:03.090Z,21.20
2023-02-09T23:46:30.549Z,14.00
2023-02-09T23:48:58.551Z,21.13
2023-02-09T23:51:30.358Z,19.47
2023-02-09T23:54:00.576Z,24.43
2023-02-09T23:56:31.425Z,16.23
2023-02-09T23:58:58.654Z,14.70
